createdAt,value
2019-04-03T06:00:28.320Z,995.94
2019-04-03T06:01:28.092Z,995.95
2019-04-03T06:02:28.437Z,995.97
2019-04-03T06:03:40.155Z,995.86
2019-04-03T06:04:29.062Z,995.93
2019-04-03T06:05:28.064Z,995.94
2019-04-03T06:06:28.207Z,995.90
2019-04-03T06:07:28.026Z,995.81
2019-04-03T06:08:28.045Z,995.85
2019-04-03T06:09:28.005Z,995.91
2019-04-03T06:10:29.829Z,995.91
2019-04-03T06:11:27.983Z,995.96
2019-04-03T06:12:28.006Z,996.03
2019-04-03T06:13:28.010Z,996.02
2019-04-03T06:14:27.978Z,996.07
2019-04-03T06:15:27.938Z,996.11
2019-04-03T06:16:27.942Z,996.14
2019-04-03T06:17:27.926Z,996.08
2019-04-03T06:18:31.032Z,996.14
2019-04-03T06:19:27.915Z,996.15
2019-04-03T06:20:27.888Z,996.11
2019-04-03T06:21:28.036Z,996.10
2019-04-03T06:22:27.866Z,996.13
2019-04-03T06:23:27.896Z,996.17
2019-04-03T06:24:27.998Z,996.16
2019-04-03T06:25:29.985Z,996.11
2019-04-03T06:26:27.852Z,996.12
2019-04-03T06:27:28.165Z,996.12
2019-04-03T06:28:27.849Z,996.13
2019-04-03T06:29:28.162Z,996.06
2019-04-03T06:30:27.783Z,996.14
2019-04-03T06:31:27.828Z,996.13
2019-04-03T06:32:29.221Z,996.13
2019-04-03T06:33:27.755Z,996.10
2019-04-03T06:34:27.984Z,996.09
2019-04-03T06:35:27.733Z,996.14
2019-04-03T06:36:27.726Z,996.10
2019-04-03T06:37:27.875Z,996.09
2019-04-03T06:38:27.761Z,996.15
2019-04-03T06:39:31.239Z,996.08
2019-04-03T06:40:27.678Z,996.14
2019-04-03T06:41:27.675Z,996.08
2019-04-03T06:42:27.658Z,996.12
2019-04-03T06:43:29.977Z,996.07
2019-04-03T06:44:27.825Z,996.05
2019-04-03T06:45:27.630Z,996.02
2019-04-03T06:46:29.080Z,996.01
2019-04-03T06:47:27.890Z,996.04
2019-04-03T06:48:27.609Z,996.09
2019-04-03T06:49:27.747Z,995.99
2019-04-03T06:50:27.580Z,996.07
2019-04-03T06:51:27.838Z,995.99
2019-04-03T06:52:27.581Z,995.99
2019-04-03T06:53:28.634Z,996.00
2019-04-03T06:54:27.817Z,996.00
2019-04-03T06:55:27.531Z,995.96
2019-04-03T06:56:27.503Z,995.96
2019-04-03T06:57:27.550Z,995.96
2019-04-03T06:58:37.350Z,995.98
2019-04-03T06:59:28.516Z,995.94
2019-04-03T07:00:27.505Z,995.97
2019-04-03T07:01:27.448Z,995.91
2019-04-03T07:02:30.830Z,995.92
2019-04-03T07:03:27.430Z,995.89
2019-04-03T07:04:27.426Z,995.84
2019-04-03T07:05:28.052Z,995.77
2019-04-03T07:06:27.646Z,995.85
2019-04-03T07:07:34.360Z,995.80
2019-04-03T07:08:34.652Z,995.79
2019-04-03T07:09:35.207Z,995.90
2019-04-03T07:10:28.399Z,995.91
2019-04-03T07:11:27.378Z,995.96
2019-04-03T07:12:27.441Z,995.95
2019-04-03T07:13:29.533Z,995.91
2019-04-03T07:14:27.408Z,995.88
2019-04-03T07:15:27.317Z,995.90
2019-04-03T07:16:28.607Z,995.82
2019-04-03T07:17:27.278Z,995.87
2019-04-03T07:18:27.267Z,995.87
2019-04-03T07:19:27.289Z,995.74
2019-04-03T07:20:27.465Z,995.86
2019-04-03T07:21:27.772Z,995.81
2019-04-03T07:22:28.223Z,995.84
2019-04-03T07:23:28.981Z,995.82
2019-04-03T07:24:27.211Z,995.84
2019-04-03T07:25:27.229Z,995.90
2019-04-03T07:26:27.524Z,995.95
2019-04-03T07:27:27.200Z,995.94
2019-04-03T07:28:30.110Z,995.93
2019-04-03T07:29:27.366Z,995.90
2019-04-03T07:30:27.139Z,996.00
2019-04-03T07:31:27.483Z,995.97
2019-04-03T07:32:27.179Z,995.95
2019-04-03T07:33:28.714Z,995.95
2019-04-03T07:34:27.096Z,995.90
2019-04-03T07:35:27.167Z,995.96
2019-04-03T07:36:27.080Z,995.95
2019-04-03T07:37:27.215Z,995.89
2019-04-03T07:38:27.055Z,995.89
2019-04-03T07:39:27.237Z,995.90
2019-04-03T07:40:27.034Z,995.85
2019-04-03T07:41:27.062Z,995.88
2019-04-03T07:42:27.024Z,995.89
2019-04-03T07:43:27.597Z,995.87
2019-04-03T07:44:27.713Z,995.80
2019-04-03T07:45:26.989Z,995.82
2019-04-03T07:46:26.969Z,995.82
2019-04-03T07:47:27.062Z,995.81
2019-04-03T07:48:27.297Z,995.80
2019-04-03T07:49:26.946Z,995.73
2019-04-03T07:50:26.965Z,995.76
2019-04-03T07:51:26.924Z,995.73
2019-04-03T07:52:26.954Z,995.67
2019-04-03T07:53:26.900Z,995.82
2019-04-03T07:54:27.299Z,995.76
2019-04-03T07:55:28.504Z,995.75
2019-04-03T07:56:26.980Z,995.81
2019-04-03T07:57:29.224Z,995.77
2019-04-03T07:58:26.860Z,995.75
2019-04-03T07:59:27.109Z,995.87
2019-04-03T08:00:26.824Z,995.85
2019-04-03T08:01:26.836Z,995.91
2019-04-03T08:02:26.940Z,995.92
2019-04-03T08:03:26.804Z,995.96
2019-04-03T08:04:27.139Z,996.03
2019-04-03T08:05:26.805Z,996.06
2019-04-03T08:06:26.792Z,996.07
2019-04-03T08:07:26.893Z,996.07
2019-04-03T08:08:26.734Z,996.08
2019-04-03T08:09:26.795Z,996.14
2019-04-03T08:10:28.009Z,996.14
2019-04-03T08:11:26.857Z,996.13
2019-04-03T08:12:26.698Z,996.00
2019-04-03T08:13:26.761Z,995.95
2019-04-03T08:14:26.834Z,995.91
2019-04-03T08:15:26.688Z,995.71
2019-04-03T08:16:26.650Z,995.72
2019-04-03T08:17:26.658Z,995.70
2019-04-03T08:18:26.682Z,995.66
2019-04-03T08:19:26.628Z,995.76
2019-04-03T08:20:26.609Z,995.84
2019-04-03T08:21:28.063Z,995.80
2019-04-03T08:22:26.787Z,995.80
2019-04-03T08:23:26.761Z,995.92
2019-04-03T08:24:26.885Z,995.86
2019-04-03T08:25:26.594Z,995.87
2019-04-03T08:26:27.423Z,995.91
2019-04-03T08:27:26.541Z,995.96
2019-04-03T08:28:29.661Z,995.93
2019-04-03T08:29:26.529Z,995.92
2019-04-03T08:30:26.499Z,995.94
2019-04-03T08:31:26.487Z,995.91
2019-04-03T08:32:26.574Z,995.91
2019-04-03T08:33:27.769Z,995.90
2019-04-03T08:34:26.453Z,995.91
2019-04-03T08:35:26.448Z,995.92
2019-04-03T08:36:27.035Z,995.94
2019-04-03T08:37:30.191Z,995.94
2019-04-03T08:38:27.453Z,995.89
2019-04-03T08:39:26.402Z,995.98
2019-04-03T08:40:26.558Z,996.04
2019-04-03T08:41:26.576Z,996.06
2019-04-03T08:42:28.080Z,996.06
2019-04-03T08:43:26.538Z,996.10
2019-04-03T08:44:26.347Z,996.01
2019-04-03T08:45:26.340Z,996.06
2019-04-03T08:46:26.333Z,996.05
2019-04-03T08:47:26.403Z,996.07
2019-04-03T08:48:26.376Z,996.08
2019-04-03T08:49:26.697Z,996.12
2019-04-03T08:50:26.799Z,996.17
2019-04-03T08:51:26.282Z,996.18
2019-04-03T08:52:26.275Z,996.19
2019-04-03T08:53:26.515Z,996.24
2019-04-03T08:54:26.335Z,996.21
2019-04-03T08:55:26.240Z,996.18
2019-04-03T08:56:26.226Z,996.12
2019-04-03T08:57:26.215Z,996.18
2019-04-03T08:58:26.782Z,996.24
2019-04-03T08:59:26.786Z,996.23
2019-04-03T09:00:26.184Z,996.23
2019-04-03T09:01:26.166Z,996.28
2019-04-03T09:02:26.287Z,996.22
2019-04-03T09:03:26.240Z,996.21
2019-04-03T09:04:26.134Z,996.22
2019-04-03T09:05:26.226Z,996.25
2019-04-03T09:06:26.161Z,996.24
2019-04-03T09:07:26.129Z,996.27
2019-04-03T09:08:26.733Z,996.27
2019-04-03T09:09:28.481Z,996.33
2019-04-03T09:10:26.072Z,996.29
2019-04-03T09:11:26.106Z,996.35
2019-04-03T09:12:26.062Z,996.32
2019-04-03T09:13:26.037Z,996.36
2019-04-03T09:14:26.207Z,996.31
2019-04-03T09:15:28.250Z,996.36
2019-04-03T09:16:26.042Z,996.34
2019-04-03T09:17:25.996Z,996.36
2019-04-03T09:18:25.998Z,996.26
2019-04-03T09:19:26.006Z,996.27
2019-04-03T09:20:25.964Z,996.35
2019-04-03T09:21:26.140Z,996.27
2019-04-03T09:22:26.152Z,996.29
2019-04-03T09:23:26.046Z,996.33
2019-04-03T09:24:29.006Z,996.31
2019-04-03T09:25:25.905Z,996.25
2019-04-03T09:26:25.946Z,996.27
2019-04-03T09:27:26.171Z,996.15
2019-04-03T09:28:25.909Z,996.08
2019-04-03T09:29:25.897Z,996.03
2019-04-03T09:30:25.986Z,996.05
2019-04-03T09:31:25.940Z,996.05
2019-04-03T09:32:25.842Z,996.05
2019-04-03T09:33:26.975Z,996.07
2019-04-03T09:34:28.744Z,996.11
2019-04-03T09:35:25.817Z,996.11
2019-04-03T09:36:25.852Z,996.17
2019-04-03T09:37:25.788Z,996.11
2019-04-03T09:38:25.768Z,996.10
2019-04-03T09:39:25.758Z,996.11
2019-04-03T09:40:25.811Z,996.08
2019-04-03T09:41:25.764Z,996.05
2019-04-03T09:42:25.734Z,996.09
2019-04-03T09:43:25.719Z,996.01
2019-04-03T09:44:25.961Z,996.04
2019-04-03T09:45:28.126Z,995.98
2019-04-03T09:46:25.760Z,995.97
2019-04-03T09:47:25.696Z,995.98
2019-04-03T09:48:25.662Z,995.94
2019-04-03T09:49:25.681Z,995.88
2019-04-03T09:50:25.870Z,995.94
2019-04-03T09:51:25.847Z,995.89
2019-04-03T09:52:38.376Z,995.86
2019-04-03T09:53:26.772Z,995.90
2019-04-03T09:54:27.275Z,995.89
2019-04-03T09:55:25.586Z,995.87
2019-04-03T09:56:25.704Z,995.91
2019-04-03T09:57:25.564Z,995.87
2019-04-03T09:58:25.556Z,995.86
2019-04-03T09:59:25.543Z,995.85
2019-04-03T10:00:25.548Z,995.89
2019-04-03T10:01:25.568Z,995.83
2019-04-03T10:02:25.514Z,995.84
2019-04-03T10:03:25.494Z,995.86
2019-04-03T10:04:26.713Z,995.79
2019-04-03T10:05:26.737Z,995.75
2019-04-03T10:06:25.509Z,995.76
2019-04-03T10:07:25.464Z,995.85
2019-04-03T10:08:25.446Z,995.75
2019-04-03T10:09:25.442Z,995.85
2019-04-03T10:10:26.328Z,995.84
2019-04-03T10:11:25.446Z,995.93
2019-04-03T10:12:25.400Z,995.94
2019-04-03T10:13:26.321Z,995.92
2019-04-03T10:14:27.141Z,995.95
2019-04-03T10:15:25.376Z,995.88
2019-04-03T10:16:25.370Z,995.80
2019-04-03T10:17:25.347Z,995.75
2019-04-03T10:18:25.392Z,995.71
2019-04-03T10:19:25.556Z,995.71
2019-04-03T10:20:25.324Z,995.84
2019-04-03T10:21:25.352Z,995.81
2019-04-03T10:22:25.407Z,995.85
2019-04-03T10:23:28.186Z,995.84
2019-04-03T10:24:25.488Z,995.90
2019-04-03T10:25:25.264Z,995.88
2019-04-03T10:26:25.382Z,995.87
2019-04-03T10:27:25.253Z,995.82
2019-04-03T10:28:25.512Z,995.81
2019-04-03T10:29:25.260Z,995.77
2019-04-03T10:30:25.209Z,995.73
2019-04-03T10:31:25.221Z,995.70
2019-04-03T10:32:27.664Z,995.74
2019-04-03T10:33:25.404Z,995.73
2019-04-03T10:34:25.166Z,995.72
2019-04-03T10:35:25.263Z,995.75
2019-04-03T10:36:25.330Z,995.58
2019-04-03T10:37:25.134Z,995.59
2019-04-03T10:38:25.153Z,995.55
2019-04-03T10:39:25.523Z,995.57
2019-04-03T10:40:25.462Z,995.51
2019-04-03T10:41:27.649Z,995.53
2019-04-03T10:42:25.075Z,995.57
2019-04-03T10:43:25.072Z,995.56
2019-04-03T10:44:25.258Z,995.54
2019-04-03T10:45:25.060Z,995.54
2019-04-03T10:46:25.303Z,995.53
2019-04-03T10:47:30.226Z,995.42
2019-04-03T10:48:27.894Z,995.43
2019-04-03T10:49:25.019Z,995.45
2019-04-03T10:50:25.224Z,995.45
2019-04-03T10:51:25.272Z,995.45
2019-04-03T10:52:25.002Z,995.39
2019-04-03T10:53:24.962Z,995.41
2019-04-03T10:54:25.756Z,995.35
2019-04-03T10:55:27.295Z,995.33
2019-04-03T10:56:24.938Z,995.28
2019-04-03T10:57:25.084Z,995.34
2019-04-03T10:58:24.912Z,995.34
2019-04-03T10:59:24.899Z,995.28
2019-04-03T11:00:28.502Z,995.25
2019-04-03T11:01:24.885Z,995.28
2019-04-03T11:02:24.888Z,995.29
2019-04-03T11:03:26.129Z,995.33
2019-04-03T11:04:25.072Z,995.29
2019-04-03T11:05:25.116Z,995.31
2019-04-03T11:06:24.878Z,995.24
2019-04-03T11:07:24.815Z,995.28
2019-04-03T11:08:24.823Z,995.26
2019-04-03T11:09:24.796Z,995.36
2019-04-03T11:10:25.283Z,995.37
2019-04-03T11:11:24.857Z,995.43
2019-04-03T11:12:24.766Z,995.39
2019-04-03T11:13:24.802Z,995.41
2019-04-03T11:14:24.852Z,995.44
2019-04-03T11:15:24.723Z,995.42
2019-04-03T11:16:24.737Z,995.40
2019-04-03T11:17:25.708Z,995.41
2019-04-03T11:18:24.717Z,995.33
2019-04-03T11:19:24.704Z,995.35
2019-04-03T11:20:24.964Z,995.33
2019-04-03T11:21:24.658Z,995.32
2019-04-03T11:22:24.683Z,995.38
2019-04-03T11:23:36.956Z,995.35
2019-04-03T11:24:25.679Z,995.43
2019-04-03T11:25:24.850Z,995.42
2019-04-03T11:26:25.494Z,995.38
2019-04-03T11:27:39.887Z,995.40
2019-04-03T11:28:26.165Z,995.40
2019-04-03T11:29:24.955Z,995.38
2019-04-03T11:30:25.005Z,995.31
2019-04-03T11:31:28.253Z,995.30
2019-04-03T11:32:24.551Z,995.28
2019-04-03T11:33:24.535Z,995.21
2019-04-03T11:34:24.676Z,995.14
2019-04-03T11:35:24.852Z,995.19
2019-04-03T11:36:25.626Z,995.12
2019-04-03T11:37:24.503Z,995.10
2019-04-03T11:38:28.198Z,995.10
2019-04-03T11:39:24.466Z,995.04
2019-04-03T11:40:25.494Z,995.04
2019-04-03T11:41:24.552Z,994.97
2019-04-03T11:42:28.541Z,994.93
2019-04-03T11:43:24.460Z,994.97
2019-04-03T11:44:24.430Z,994.96
2019-04-03T11:45:24.417Z,994.95
2019-04-03T11:46:24.411Z,994.93
2019-04-03T11:47:24.616Z,994.90
2019-04-03T11:48:26.803Z,994.85
2019-04-03T11:49:24.526Z,994.83
2019-04-03T11:50:25.408Z,994.78
2019-04-03T11:51:24.339Z,994.78
2019-04-03T11:52:24.332Z,994.82
2019-04-03T11:53:24.324Z,994.83
2019-04-03T11:54:24.357Z,994.89
2019-04-03T11:55:24.509Z,994.88
2019-04-03T11:56:24.283Z,994.96
2019-04-03T11:57:26.704Z,994.98
2019-04-03T11:58:24.444Z,994.96
2019-04-03T11:59:24.445Z,995.01
2019-04-03T12:00:24.238Z,994.97
2019-04-03T12:01:24.234Z,994.96
2019-04-03T12:02:24.231Z,994.95
2019-04-03T12:03:24.217Z,994.98
2019-04-03T12:04:24.234Z,995.01
2019-04-03T12:05:24.245Z,994.99
2019-04-03T12:06:24.181Z,995.00
2019-04-03T12:07:25.115Z,994.96
2019-04-03T12:08:25.703Z,994.99
2019-04-03T12:09:24.182Z,995.11
2019-04-03T12:10:25.936Z,995.11
2019-04-03T12:11:24.333Z,995.12
2019-04-03T12:12:24.142Z,995.12
2019-04-03T12:13:24.152Z,995.19
2019-04-03T12:14:24.121Z,995.13
2019-04-03T12:15:24.077Z,995.21
2019-04-03T12:16:25.922Z,995.11
2019-04-03T12:17:24.083Z,995.22
2019-04-03T12:18:24.115Z,995.17
2019-04-03T12:19:24.041Z,995.15
2019-04-03T12:20:24.059Z,995.10
2019-04-03T12:21:24.405Z,995.05
2019-04-03T12:22:24.200Z,995.06
2019-04-03T12:23:24.411Z,995.03
2019-04-03T12:24:23.990Z,995.09
2019-04-03T12:25:23.977Z,995.03
2019-04-03T12:26:24.382Z,995.04
2019-04-03T12:27:24.221Z,995.00
2019-04-03T12:28:24.116Z,994.99
2019-04-03T12:29:24.171Z,994.95
2019-04-03T12:30:26.498Z,994.90
2019-04-03T12:31:23.931Z,994.95
2019-04-03T12:32:36.134Z,994.90
2019-04-03T12:33:24.916Z,994.92
2019-04-03T12:34:23.953Z,994.89
2019-04-03T12:35:24.047Z,994.91
2019-04-03T12:36:26.613Z,994.89
2019-04-03T12:37:24.993Z,994.87
2019-04-03T12:38:23.909Z,994.81
2019-04-03T12:39:24.796Z,994.90
2019-04-03T12:40:23.826Z,994.84
2019-04-03T12:41:23.844Z,994.85
2019-04-03T12:42:23.832Z,994.86
2019-04-03T12:43:24.061Z,994.85
2019-04-03T12:44:23.766Z,994.86
2019-04-03T12:45:25.728Z,994.82
2019-04-03T12:46:24.118Z,994.71
2019-04-03T12:47:23.958Z,994.75
2019-04-03T12:48:23.993Z,994.75
2019-04-03T12:49:24.264Z,994.73
2019-04-03T12:50:26.528Z,994.72
2019-04-03T12:51:23.744Z,994.76
2019-04-03T12:52:23.694Z,994.74
2019-04-03T12:53:24.568Z,994.67
2019-04-03T12:54:23.710Z,994.69
2019-04-03T12:55:25.941Z,994.65
2019-04-03T12:56:25.172Z,994.62
2019-04-03T12:57:23.626Z,994.66
2019-04-03T12:58:23.648Z,994.59
2019-04-03T12:59:23.841Z,994.55
2019-04-03T13:00:23.634Z,994.57
2019-04-03T13:01:23.579Z,994.54
2019-04-03T13:02:23.589Z,994.59
2019-04-03T13:03:24.674Z,994.51
2019-04-03T13:04:25.249Z,994.54
2019-04-03T13:05:23.541Z,994.46
2019-04-03T13:06:23.538Z,994.44
2019-04-03T13:07:23.518Z,994.44
2019-04-03T13:08:23.536Z,994.41
2019-04-03T13:09:23.532Z,994.41
2019-04-03T13:10:23.485Z,994.43
2019-04-03T13:11:23.483Z,994.46
2019-04-03T13:12:26.831Z,994.41
2019-04-03T13:13:25.236Z,994.48
2019-04-03T13:14:26.419Z,994.46
2019-04-03T13:15:23.696Z,994.47
2019-04-03T13:16:23.654Z,994.41
2019-04-03T13:17:23.536Z,994.32
2019-04-03T13:18:23.398Z,994.35
2019-04-03T13:19:24.484Z,994.30
2019-04-03T13:20:23.437Z,994.14
2019-04-03T13:21:23.367Z,994.11
2019-04-03T13:22:23.455Z,994.11
2019-04-03T13:23:23.355Z,994.07
2019-04-03T13:24:23.543Z,994.09
2019-04-03T13:25:23.460Z,994.06
2019-04-03T13:26:24.784Z,994.09
2019-04-03T13:27:23.301Z,994.11
2019-04-03T13:28:23.411Z,994.12
2019-04-03T13:29:23.291Z,994.13
2019-04-03T13:30:23.533Z,994.16
2019-04-03T13:31:23.269Z,994.24
2019-04-03T13:32:23.727Z,994.16
2019-04-03T13:33:23.311Z,994.13
2019-04-03T13:34:23.252Z,994.14
2019-04-03T13:35:23.221Z,994.12
2019-04-03T13:36:24.474Z,994.11
2019-04-03T13:37:23.925Z,994.10
2019-04-03T13:38:23.187Z,994.03
2019-04-03T13:39:23.220Z,994.07
2019-04-03T13:40:23.481Z,994.10
2019-04-03T13:41:23.602Z,994.10
2019-04-03T13:42:23.228Z,994.16
2019-04-03T13:43:23.508Z,994.18
2019-04-03T13:44:25.984Z,994.19
2019-04-03T13:45:23.581Z,994.16
2019-04-03T13:46:23.452Z,994.18
2019-04-03T13:47:23.090Z,994.23
2019-04-03T13:48:23.099Z,994.29
2019-04-03T13:49:23.463Z,994.19
2019-04-03T13:50:23.581Z,994.21
2019-04-03T13:51:25.361Z,994.20
2019-04-03T13:52:23.445Z,994.20
2019-04-03T13:53:25.043Z,994.16
2019-04-03T13:54:25.198Z,994.09
2019-04-03T13:55:23.027Z,994.13
2019-04-03T13:56:24.423Z,994.13
2019-04-03T13:57:22.990Z,994.11
2019-04-03T13:58:23.361Z,994.15
2019-04-03T13:59:25.208Z,994.11
2019-04-03T14:00:23.764Z,994.12
2019-04-03T14:01:22.958Z,994.08
2019-04-03T14:02:22.977Z,994.14
2019-04-03T14:03:23.146Z,994.04
2019-04-03T14:04:23.566Z,994.02
2019-04-03T14:05:23.037Z,994.01
2019-04-03T14:06:23.249Z,993.90
2019-04-03T14:07:23.088Z,993.92
2019-04-03T14:08:23.098Z,993.91
2019-04-03T14:09:22.890Z,993.95
2019-04-03T14:10:26.134Z,993.95
2019-04-03T14:11:23.293Z,993.98
2019-04-03T14:12:22.855Z,993.93
2019-04-03T14:13:22.861Z,993.91
2019-04-03T14:14:22.846Z,993.97
2019-04-03T14:15:23.070Z,993.94
2019-04-03T14:16:23.547Z,993.92
2019-04-03T14:17:22.774Z,993.94
2019-04-03T14:18:22.789Z,993.91
2019-04-03T14:19:24.991Z,993.95
2019-04-03T14:20:23.744Z,993.89
2019-04-03T14:21:22.873Z,993.89
2019-04-03T14:22:22.760Z,993.88
2019-04-03T14:23:22.710Z,993.94
2019-04-03T14:24:22.708Z,994.00
2019-04-03T14:25:25.562Z,993.96
2019-04-03T14:26:23.986Z,994.02
2019-04-03T14:27:26.752Z,993.99
2019-04-03T14:28:23.651Z,994.00
2019-04-03T14:29:22.657Z,994.04
2019-04-03T14:30:22.674Z,994.04
2019-04-03T14:31:33.536Z,994.04
2019-04-03T14:32:23.901Z,994.03
2019-04-03T14:33:24.884Z,994.05
2019-04-03T14:34:22.582Z,994.02
2019-04-03T14:35:53.225Z,994.07
2019-04-03T14:36:25.352Z,994.06
2019-04-03T14:37:26.052Z,994.10
2019-04-03T14:38:22.653Z,994.14
2019-04-03T14:39:22.806Z,994.14
2019-04-03T14:40:22.518Z,994.08
2019-04-03T14:41:22.506Z,994.09
2019-04-03T14:42:25.666Z,994.05
2019-04-03T14:43:22.847Z,994.02
2019-04-03T14:44:22.816Z,993.96
2019-04-03T14:45:22.654Z,993.99
2019-04-03T14:46:22.462Z,993.94
2019-04-03T14:47:23.440Z,993.95
2019-04-03T14:48:25.509Z,993.94
2019-04-03T14:49:22.537Z,994.04
2019-04-03T14:50:22.508Z,994.01
2019-04-03T14:51:22.402Z,994.01
2019-04-03T14:52:22.812Z,993.98
2019-04-03T14:53:22.580Z,994.04
2019-04-03T14:54:24.603Z,993.98
2019-04-03T14:55:23.590Z,994.00
2019-04-03T14:56:22.733Z,994.01
2019-04-03T14:57:23.697Z,993.97
2019-04-03T14:58:25.688Z,993.95
2019-04-03T14:59:22.499Z,993.93
2019-04-03T15:00:27.479Z,993.94
2019-04-03T15:01:23.294Z,993.96
2019-04-03T15:02:23.860Z,993.96
2019-04-03T15:03:22.758Z,993.95
2019-04-03T15:04:22.271Z,993.95
2019-04-03T15:05:22.341Z,993.98
2019-04-03T15:06:22.252Z,993.95
2019-04-03T15:07:22.262Z,993.96
2019-04-03T15:08:23.541Z,993.86
2019-04-03T15:09:22.419Z,993.91
2019-04-03T15:10:22.943Z,993.93
2019-04-03T15:11:22.194Z,994.01
2019-04-03T15:12:22.267Z,994.04
2019-04-03T15:13:22.411Z,994.09
2019-04-03T15:14:22.954Z,994.04
2019-04-03T15:15:22.145Z,994.06
2019-04-03T15:16:22.162Z,994.04
2019-04-03T15:17:22.513Z,994.05
2019-04-03T15:18:22.129Z,994.06
2019-04-03T15:19:22.104Z,994.08
2019-04-03T15:20:22.137Z,994.13
2019-04-03T15:21:23.798Z,994.13
2019-04-03T15:22:22.411Z,994.10
2019-04-03T15:23:22.052Z,994.23
2019-04-03T15:24:22.055Z,994.23
2019-04-03T15:25:22.028Z,994.36
2019-04-03T15:26:22.515Z,994.26
2019-04-03T15:27:22.430Z,994.19
2019-04-03T15:28:22.071Z,994.18
2019-04-03T15:29:21.998Z,994.19
2019-04-03T15:30:24.817Z,994.14
2019-04-03T15:31:23.929Z,994.17
2019-04-03T15:32:22.836Z,994.16
2019-04-03T15:33:24.289Z,994.19
2019-04-03T15:34:22.131Z,994.15
2019-04-03T15:35:22.229Z,994.19
2019-04-03T15:36:21.945Z,994.11
2019-04-03T15:37:21.981Z,994.16
2019-04-03T15:38:22.050Z,994.16
2019-04-03T15:39:21.880Z,994.14
2019-04-03T15:40:24.618Z,994.16
2019-04-03T15:41:21.914Z,994.21
2019-04-03T15:42:21.985Z,994.12
2019-04-03T15:43:22.284Z,994.20
2019-04-03T15:44:22.805Z,994.10
2019-04-03T15:45:24.940Z,994.07
2019-04-03T15:46:22.013Z,994.03
2019-04-03T15:47:33.918Z,994.04
2019-04-03T15:48:23.276Z,994.00
2019-04-03T15:49:21.772Z,994.00
2019-04-03T15:50:21.948Z,993.95
2019-04-03T15:51:21.918Z,993.90
2019-04-03T15:52:21.751Z,993.91
2019-04-03T15:53:23.915Z,993.87
2019-04-03T15:54:21.731Z,993.87
2019-04-03T15:55:24.123Z,993.91
2019-04-03T15:56:22.137Z,993.92
2019-04-03T15:57:23.156Z,993.95
2019-04-03T15:58:22.817Z,993.91
2019-04-03T15:59:22.348Z,994.00
2019-04-03T16:00:21.707Z,993.99
2019-04-03T16:01:21.861Z,993.94
2019-04-03T16:02:21.695Z,993.95
2019-04-03T16:03:21.835Z,993.88
2019-04-03T16:04:21.736Z,993.95
2019-04-03T16:05:21.611Z,993.91
2019-04-03T16:06:22.303Z,993.83
2019-04-03T16:07:21.676Z,993.73
2019-04-03T16:08:21.671Z,993.77
2019-04-03T16:09:21.620Z,993.74
2019-04-03T16:10:23.234Z,993.86
2019-04-03T16:11:21.577Z,993.80
2019-04-03T16:12:22.345Z,993.72
2019-04-03T16:13:22.179Z,993.78
2019-04-03T16:14:21.669Z,993.77
2019-04-03T16:15:22.637Z,993.83
2019-04-03T16:16:21.691Z,993.83
2019-04-03T16:17:21.623Z,993.73
2019-04-03T16:18:21.502Z,993.74
2019-04-03T16:19:21.475Z,993.74
2019-04-03T16:20:21.472Z,993.73
2019-04-03T16:21:23.648Z,993.73
2019-04-03T16:22:21.545Z,993.72
2019-04-03T16:23:21.571Z,993.80
2019-04-03T16:24:21.602Z,993.80
2019-04-03T16:25:21.393Z,993.66
2019-04-03T16:26:23.796Z,993.63
2019-04-03T16:27:22.137Z,993.57
2019-04-03T16:28:22.753Z,993.65
2019-04-03T16:29:21.661Z,993.53
2019-04-03T16:30:21.861Z,993.51
2019-04-03T16:31:21.758Z,993.47
2019-04-03T16:32:21.722Z,993.51
2019-04-03T16:33:24.012Z,993.49
2019-04-03T16:34:21.317Z,993.47
2019-04-03T16:35:21.698Z,993.44
2019-04-03T16:36:21.278Z,993.38
2019-04-03T16:37:22.692Z,993.43
2019-04-03T16:38:21.792Z,993.40
2019-04-03T16:39:21.484Z,993.48
2019-04-03T16:40:21.373Z,993.45
2019-04-03T16:41:21.261Z,993.51
2019-04-03T16:42:21.403Z,993.52
2019-04-03T16:43:22.145Z,993.59
2019-04-03T16:44:21.190Z,993.53
2019-04-03T16:45:21.181Z,993.59
2019-04-03T16:46:21.178Z,993.59
2019-04-03T16:47:21.205Z,993.67
2019-04-03T16:48:21.238Z,993.76
2019-04-03T16:49:22.812Z,993.80
2019-04-03T16:50:27.953Z,993.82
2019-04-03T16:51:21.446Z,993.79
2019-04-03T16:52:22.184Z,993.79
2019-04-03T16:53:21.446Z,993.75
2019-04-03T16:54:21.669Z,993.76
2019-04-03T16:55:21.553Z,993.74
2019-04-03T16:56:21.127Z,993.76
2019-04-03T16:57:22.606Z,993.71
2019-04-03T16:58:21.052Z,993.70
2019-04-03T16:59:21.037Z,993.64
2019-04-03T17:00:21.033Z,993.73
2019-04-03T17:01:21.108Z,993.75
2019-04-03T17:02:23.890Z,993.69
2019-04-03T17:03:21.366Z,993.71
2019-04-03T17:04:26.868Z,993.69
2019-04-03T17:05:22.324Z,993.71
2019-04-03T17:06:20.952Z,993.75
2019-04-03T17:07:21.794Z,993.65
2019-04-03T17:08:20.933Z,993.71
2019-04-03T17:09:20.918Z,993.65
2019-04-03T17:10:20.913Z,993.66
2019-04-03T17:11:20.904Z,993.65
2019-04-03T17:12:20.951Z,993.64
2019-04-03T17:13:21.469Z,993.69
2019-04-03T17:14:23.302Z,993.67
2019-04-03T17:15:20.851Z,993.68
2019-04-03T17:16:20.849Z,993.61
2019-04-03T17:17:20.928Z,993.61
2019-04-03T17:18:20.895Z,993.62
2019-04-03T17:19:21.169Z,993.52
2019-04-03T17:20:22.570Z,993.49
2019-04-03T17:21:21.044Z,993.44
2019-04-03T17:25:04.667Z,993.53
2019-04-03T17:26:05.094Z,993.43
2019-04-03T17:27:04.596Z,993.42
2019-04-03T17:28:09.165Z,993.46
2019-04-03T17:29:06.350Z,993.41
2019-04-03T17:30:04.622Z,993.27
2019-04-03T17:31:04.718Z,993.40
2019-04-03T17:32:07.811Z,993.44
2019-04-03T17:33:04.650Z,993.47
2019-04-03T17:34:07.519Z,993.53
2019-04-03T17:35:06.729Z,993.64
2019-04-03T17:36:04.506Z,993.77
2019-04-03T17:37:04.506Z,993.84
2019-04-03T17:38:04.643Z,993.87
2019-04-03T17:39:05.510Z,993.89
2019-04-03T17:40:05.936Z,993.96
2019-04-03T17:41:05.030Z,993.86
2019-04-03T17:42:04.443Z,993.87
2019-04-03T17:43:04.474Z,993.90
2019-04-03T17:44:04.471Z,993.92
2019-04-03T17:45:04.413Z,993.96
2019-04-03T17:46:04.397Z,993.98
2019-04-03T17:47:04.406Z,993.95
2019-04-03T17:48:04.378Z,993.99
2019-04-03T17:49:04.395Z,993.94
2019-04-03T17:50:06.198Z,993.94
2019-04-03T17:51:04.377Z,994.01
2019-04-03T17:52:05.111Z,994.05
2019-04-03T17:53:06.215Z,994.06
2019-04-03T17:54:07.532Z,994.08
2019-04-03T17:55:04.305Z,994.10
2019-04-03T17:56:04.282Z,993.98
2019-04-03T17:57:04.280Z,994.03
2019-04-03T17:58:04.265Z,993.99
2019-04-03T17:59:04.298Z,994.04
2019-04-03T18:00:04.287Z,994.11
2019-04-03T18:01:04.248Z,994.00
2019-04-03T18:02:04.229Z,993.92
2019-04-03T18:03:04.214Z,993.92
2019-04-03T18:04:04.207Z,993.89
2019-04-03T18:05:06.460Z,993.86
2019-04-03T18:06:04.224Z,993.85
2019-04-03T18:07:04.198Z,993.98
2019-04-03T18:08:04.165Z,993.99
2019-04-03T18:09:04.220Z,994.09
2019-04-03T18:10:04.339Z,994.12
2019-04-03T18:11:04.163Z,994.11
2019-04-03T18:12:04.126Z,994.10
2019-04-03T18:13:04.137Z,994.03
2019-04-03T18:14:04.142Z,994.09
2019-04-03T18:15:04.084Z,994.07
2019-04-03T18:16:04.109Z,994.08
2019-04-03T18:17:04.108Z,994.12
2019-04-03T18:18:04.058Z,994.10
2019-04-03T18:19:04.918Z,994.08
2019-04-03T18:20:04.044Z,994.10
2019-04-03T18:21:04.055Z,993.99
2019-04-03T18:22:04.027Z,993.99
2019-04-03T18:23:04.029Z,993.97
2019-04-03T18:24:03.995Z,993.94
2019-04-03T18:25:03.985Z,993.91
2019-04-03T18:26:03.980Z,993.99
2019-04-03T18:27:06.355Z,994.04
2019-04-03T18:28:05.404Z,994.08
2019-04-03T18:29:06.369Z,994.17
2019-04-03T18:30:03.929Z,994.16
2019-04-03T18:31:03.964Z,994.10